Time;durP1;ratioP1;P1;durP2;ratioP2;P2;SDS_P1;SDS_P2;PMS_P1;PMS_P2;Temp;Humidity;BMP_temperature;BMP_pressure;BME280_temperature;BME280_humidity;BME280_pressure;Samples;Min_cycle;Max_cycle;Signal;HPM_P1;HPM_P2
2023/07/29 00:00:52;;;;;;;;;;;15.70;75.90;;;;;;5067334;28;19981;-77
2023/07/29 00:03:18;;;;;;;;;;;15.70;75.90;;;;;;5066236;28;19963;-77
2023/07/29 00:05:44;;;;;;;;;;;15.70;75.90;;;;;;5066339;28;19958;-77
2023/07/29 00:08:09;;;;;;;;;;;15.70;75.90;;;;;;5049500;28;19917;-76
2023/07/29 00:10:38;;;;;;;;;;;15.60;75.90;;;;;;5067653;28;19948;-76
2023/07/29 00:13:04;;;;;;;;;;;15.60;76.00;;;;;;5067746;28;19963;-77
2023/07/29 00:15:30;;;;;;;;;;;15.60;76.10;;;;;;5067547;28;19912;-77
2023/07/29 00:17:55;;;;;;;;;;;15.60;76.10;;;;;;5071016;28;19954;-77
2023/07/29 00:20:21;;;;;;;;;;;15.60;76.10;;;;;;5071375;28;19917;-77
2023/07/29 00:22:49;;;;;;;;;;;15.50;76.10;;;;;;5071720;28;19962;-77
2023/07/29 00:25:15;;;;;;;;;;;15.50;76.10;;;;;;5070355;28;20288;-76
2023/07/29 00:27:42;;;;;;;;;;;15.50;76.10;;;;;;5071925;28;20019;-77
2023/07/29 00:30:08;;;;;;;;;;;15.50;76.20;;;;;;5071678;28;19909;-76
2023/07/29 00:32:34;;;;;;;;;;;15.60;76.30;;;;;;5071518;28;19943;-76
2023/07/29 00:35:00;;;;;;;;;;;15.60;76.30;;;;;;5072456;28;20380;-77
2023/07/29 00:37:27;;;;;;;;;;;15.70;76.20;;;;;;5073285;28;19912;-77
2023/07/29 00:39:52;;;;;;;;;;;15.70;76.00;;;;;;5071216;28;19912;-77
2023/07/29 00:42:18;;;;;;;;;;;15.70;76.00;;;;;;5071250;28;19999;-78
2023/07/29 00:44:44;;;;;;;;;;;15.70;76.10;;;;;;5071264;28;19912;-77
2023/07/29 00:47:09;;;;;;;;;;;15.70;76.20;;;;;;5071175;28;19913;-77
2023/07/29 00:49:35;;;;;;;;;;;15.80;76.60;;;;;;5069126;28;20340;-77
2023/07/29 00:52:00;;;;;;;;;;;15.80;76.30;;;;;;5070367;28;20375;-77
2023/07/29 00:54:26;;;;;;;;;;;15.90;76.20;;;;;;5052338;28;19924;-77
2023/07/29 00:56:52;;;;;;;;;;;16.00;76.20;;;;;;5070535;28;19924;-77
2023/07/29 00:59:17;;;;;;;;;;;16.10;76.20;;;;;;5070079;28;20011;-76
2023/07/29 01:01:43;;;;;;;;;;;16.10;76.10;;;;;;5070176;28;20372;-77
2023/07/29 01:04:08;;;;;;;;;;;16.10;76.50;;;;;;5069514;28;19956;-77
2023/07/29 01:06:52;;;;;;;;;;;16.10;76.00;;;;;;5071045;28;19909;-76
2023/07/29 01:09:40;;;;;;;;;;;16.10;76.00;;;;;;5069425;28;20015;-77
2023/07/29 01:12:20;;;;;;;;;;;16.00;76.00;;;;;;5070943;28;19908;-77
2023/07/29 01:14:52;;;;;;;;;;;16.00;76.20;;;;;;5069273;28;19930;-77
2023/07/29 01:17:22;;;;;;;;;;;15.90;76.20;;;;;;5069425;28;19916;-77
2023/07/29 01:20:00;;;;;;;;;;;15.90;76.30;;;;;;5069425;28;19908;-77
2023/07/29 01:22:26;;;;;;;;;;;16.00;76.30;;;;;;5069318;28;19912;-77
2023/07/29 01:24:52;;;;;;;;;;;15.90;76.20;;;;;;5070442;28;19916;-76
2023/07/29 01:27:17;;;;;;;;;;;15.90;76.20;;;;;;5052489;28;19913;-77
2023/07/29 01:29:43;;;;;;;;;;;15.80;76.10;;;;;;5069746;28;19980;-76
2023/07/29 01:32:17;;;;;;;;;;;15.80;76.20;;;;;;5070552;28;19935;-77
2023/07/29 01:34:53;;;;;;;;;;;15.70;76.20;;;;;;5070284;28;19969;-76
2023/07/29 01:37:22;;;;;;;;;;;15.60;76.20;;;;;;5070718;28;19908;-76
2023/07/29 01:39:49;;;;;;;;;;;15.50;76.20;;;;;;5070307;28;19915;-77
2023/07/29 01:42:15;;;;;;;;;;;15.50;76.30;;;;;;5070204;28;19913;-77
2023/07/29 01:44:42;;;;;;;;;;;15.40;76.30;;;;;;5069984;28;19916;-77
2023/07/29 01:47:08;;;;;;;;;;;15.30;76.30;;;;;;5070189;28;20288;-77
2023/07/29 01:49:33;;;;;;;;;;;15.30;76.30;;;;;;5068748;28;19924;-77
2023/07/29 01:51:59;;;;;;;;;;;15.30;76.30;;;;;;5069998;28;19912;-76
2023/07/29 01:54:25;;;;;;;;;;;15.30;76.30;;;;;;5068734;28;19917;-77
2023/07/29 01:56:51;;;;;;;;;;;15.20;76.30;;;;;;5070147;28;20323;-76
2023/07/29 01:59:16;;;;;;;;;;;15.20;76.20;;;;;;5068583;28;19909;-77
2023/07/29 02:01:42;;;;;;;;;;;15.20;76.20;;;;;;5069648;28;19955;-77
2023/07/29 02:04:08;;;;;;;;;;;15.10;76.20;;;;;;5085373;28;20380;-77
2023/07/29 02:06:34;;;;;;;;;;;15.10;76.20;;;;;;5069583;28;20394;-77
2023/07/29 02:09:00;;;;;;;;;;;15.10;76.30;;;;;;5069716;28;19916;-76
2023/07/29 02:11:27;;;;;;;;;;;15.10;76.30;;;;;;5072387;28;19919;-77
2023/07/29 02:13:56;;;;;;;;;;;15.00;76.30;;;;;;5069634;28;19912;-77
2023/07/29 02:16:22;;;;;;;;;;;15.10;76.40;;;;;;5069429;28;19921;-77
2023/07/29 02:18:49;;;;;;;;;;;15.10;76.40;;;;;;5069518;28;19913;-77
2023/07/29 02:21:15;;;;;;;;;;;15.10;76.30;;;;;;5068165;28;19921;-77
2023/07/29 02:23:40;;;;;;;;;;;15.00;76.20;;;;;;5069411;28;19988;-77
2023/07/29 02:26:06;;;;;;;;;;;15.00;76.20;;;;;;5069283;28;19912;-77
2023/07/29 02:28:31;;;;;;;;;;;15.00;76.30;;;;;;5069098;28;19958;-77
2023/07/29 02:31:10;;;;;;;;;;;14.90;76.30;;;;;;5051234;28;20283;-77
2023/07/29 02:33:36;;;;;;;;;;;14.90;76.30;;;;;;5069120;28;20315;-77
2023/07/29 02:36:01;;;;;;;;;;;14.90;76.30;;;;;;5068999;28;19917;-77
2023/07/29 02:38:27;;;;;;;;;;;14.90;76.30;;;;;;5069213;28;20428;-77
2023/07/29 02:40:52;;;;;;;;;;;14.90;76.40;;;;;;5050028;28;19921;-77
2023/07/29 02:43:18;;;;;;;;;;;14.80;76.30;;;;;;5068926;28;20007;-77
2023/07/29 02:45:43;;;;;;;;;;;14.80;76.40;;;;;;5067617;28;20349;-77
2023/07/29 02:48:09;;;;;;;;;;;14.80;76.30;;;;;;5068894;28;19981;-76
2023/07/29 02:50:35;;;;;;;;;;;14.70;76.30;;;;;;5068900;28;20023;-77
2023/07/29 02:53:01;;;;;;;;;;;14.80;76.40;;;;;;5069071;28;19917;-77
2023/07/29 02:55:27;;;;;;;;;;;14.70;76.40;;;;;;5067332;28;19935;-77
2023/07/29 02:57:52;;;;;;;;;;;14.70;76.40;;;;;;5067439;28;19967;-76
2023/07/29 03:00:18;;;;;;;;;;;14.70;76.40;;;;;;5068426;28;20312;-77
2023/07/29 03:02:43;;;;;;;;;;;14.70;76.50;;;;;;5069240;28;19985;-77
2023/07/29 03:05:09;;;;;;;;;;;14.80;76.60;;;;;;5068275;28;20324;-77
2023/07/29 03:07:34;;;;;;;;;;;14.80;76.60;;;;;;5067299;28;19913;-77
2023/07/29 03:10:00;;;;;;;;;;;14.80;76.50;;;;;;5068516;28;19921;-77
2023/07/29 03:12:26;;;;;;;;;;;14.80;76.30;;;;;;5067270;28;19913;-77
2023/07/29 03:14:52;;;;;;;;;;;14.80;76.30;;;;;;5067059;28;20007;-77
2023/07/29 03:17:17;;;;;;;;;;;14.80;76.40;;;;;;5050429;28;20423;-77
2023/07/29 03:19:43;;;;;;;;;;;14.70;76.40;;;;;;5068327;28;19913;-77
2023/07/29 03:22:08;;;;;;;;;;;14.70;76.40;;;;;;5068223;28;19916;-77
2023/07/29 03:24:34;;;;;;;;;;;14.70;76.40;;;;;;5068201;28;19916;-76
2023/07/29 03:26:59;;;;;;;;;;;14.70;76.40;;;;;;5068319;28;20001;-76
2023/07/29 03:29:25;;;;;;;;;;;14.70;76.40;;;;;;5067053;28;19931;-77
2023/07/29 03:31:50;;;;;;;;;;;14.60;76.40;;;;;;5066922;28;19923;-77
2023/07/29 03:34:16;;;;;;;;;;;14.60;76.40;;;;;;5068176;28;19916;-77
2023/07/29 03:36:41;;;;;;;;;;;14.60;76.40;;;;;;5068356;28;20011;-77
2023/07/29 03:39:07;;;;;;;;;;;14.50;76.40;;;;;;5066944;28;19948;-77
2023/07/29 03:41:33;;;;;;;;;;;14.50;76.40;;;;;;5068025;28;19923;-77
2023/07/29 03:43:58;;;;;;;;;;;14.50;76.40;;;;;;5071868;28;19923;-76
2023/07/29 03:46:24;;;;;;;;;;;14.50;76.40;;;;;;5069325;28;19912;-76
2023/07/29 03:48:50;;;;;;;;;;;14.40;76.40;;;;;;5066852;28;20283;-76
2023/07/29 03:51:15;;;;;;;;;;;14.40;76.40;;;;;;5067897;28;19912;-77
2023/07/29 03:53:41;;;;;;;;;;;14.40;76.50;;;;;;5066718;28;20369;-77
2023/07/29 03:56:07;;;;;;;;;;;14.40;76.50;;;;;;5067638;28;19912;-77
2023/07/29 03:58:32;;;;;;;;;;;14.40;76.50;;;;;;5066551;28;19952;-77
2023/07/29 04:00:58;;;;;;;;;;;14.30;76.40;;;;;;5066245;28;19931;-76
2023/07/29 04:03:26;;;;;;;;;;;14.30;76.40;;;;;;5067066;28;20450;-76
2023/07/29 04:05:52;;;;;;;;;;;14.30;76.50;;;;;;5066454;28;19921;-76
2023/07/29 04:08:18;;;;;;;;;;;14.20;76.40;;;;;;5067827;28;20322;-76
2023/07/29 04:10:44;;;;;;;;;;;14.20;76.40;;;;;;5066370;28;19915;-77
2023/07/29 04:13:09;;;;;;;;;;;14.20;76.50;;;;;;5067971;28;20343;-77
2023/07/29 04:15:35;;;;;;;;;;;14.20;77.00;;;;;;5067474;28;19913;-76
2023/07/29 04:18:00;;;;;;;;;;;14.20;76.50;;;;;;5067615;28;20438;-76
2023/07/29 04:20:26;;;;;;;;;;;14.20;76.50;;;;;;5066334;28;20021;-77
2023/07/29 04:22:51;;;;;;;;;;;14.10;76.40;;;;;;5067525;28;19912;-77
2023/07/29 04:25:17;;;;;;;;;;;14.10;76.50;;;;;;5067549;28;19923;-77
2023/07/29 04:27:42;;;;;;;;;;;14.10;76.50;;;;;;5067584;28;19919;-77
2023/07/29 04:30:08;;;;;;;;;;;14.10;76.50;;;;;;5067564;28;20203;-77
2023/07/29 04:32:34;;;;;;;;;;;14.00;76.50;;;;;;5067509;28;19917;-76
2023/07/29 04:34:59;;;;;;;;;;;14.00;76.50;;;;;;5066409;28;20033;-76
2023/07/29 04:37:25;;;;;;;;;;;14.00;76.50;;;;;;5066308;28;19916;-77
2023/07/29 04:39:50;;;;;;;;;;;14.00;76.50;;;;;;5067465;28;19940;-76
2023/07/29 04:42:16;;;;;;;;;;;14.00;76.50;;;;;;5067439;28;19973;-77
2023/07/29 04:44:42;;;;;;;;;;;14.00;76.50;;;;;;5067297;28;19920;-76
2023/07/29 04:47:07;;;;;;;;;;;14.00;76.50;;;;;;5066276;28;20013;-78
2023/07/29 04:49:33;;;;;;;;;;;14.00;76.50;;;;;;5067299;28;19916;-78
2023/07/29 04:51:58;;;;;;;;;;;14.00;76.50;;;;;;5049328;28;19913;-78
2023/07/29 04:54:24;;;;;;;;;;;14.00;76.50;;;;;;5067238;28;20359;-78
2023/07/29 04:56:49;;;;;;;;;;;14.00;76.50;;;;;;5066252;28;20040;-78
2023/07/29 04:59:16;;;;;;;;;;;14.00;76.50;;;;;;5066028;28;19912;-77
2023/07/29 05:01:42;;;;;;;;;;;14.10;76.50;;;;;;5065627;28;19943;-79
2023/07/29 05:04:08;;;;;;;;;;;14.10;76.50;;;;;;5068946;28;19951;-78
2023/07/29 05:06:34;;;;;;;;;;;14.20;76.60;;;;;;5070855;28;20304;-78
2023/07/29 05:09:11;;;;;;;;;;;14.30;76.60;;;;;;5069648;28;19982;-78
2023/07/29 05:11:37;;;;;;;;;;;14.40;76.50;;;;;;5070905;28;20286;-77
2023/07/29 05:14:04;;;;;;;;;;;14.50;76.50;;;;;;5070788;28;19920;-78
2023/07/29 05:16:30;;;;;;;;;;;14.50;76.40;;;;;;5070791;28;19962;-78
2023/07/29 05:18:55;;;;;;;;;;;14.70;76.50;;;;;;5070545;28;20379;-78
2023/07/29 05:21:21;;;;;;;;;;;14.80;76.50;;;;;;5052805;28;19920;-79
2023/07/29 05:23:46;;;;;;;;;;;14.90;76.50;;;;;;5069389;28;19939;-78
2023/07/29 05:26:12;;;;;;;;;;;15.00;76.40;;;;;;5070589;28;20287;-78
2023/07/29 05:28:37;;;;;;;;;;;15.20;76.30;;;;;;5070543;28;19926;-78
2023/07/29 05:31:03;;;;;;;;;;;15.20;76.20;;;;;;5070320;28;19912;-78
2023/07/29 05:33:28;;;;;;;;;;;15.30;76.30;;;;;;5070385;28;19908;-78
2023/07/29 05:35:54;;;;;;;;;;;15.40;76.30;;;;;;5070265;28;19952;-77
2023/07/29 05:38:23;;;;;;;;;;;15.40;76.30;;;;;;5069007;28;19912;-78
2023/07/29 05:40:48;;;;;;;;;;;15.40;76.30;;;;;;5070197;28;19924;-78
2023/07/29 05:43:14;;;;;;;;;;;15.50;76.40;;;;;;5070272;28;19917;-78
2023/07/29 05:45:40;;;;;;;;;;;15.50;76.40;;;;;;5069962;28;19931;-78
2023/07/29 05:48:05;;;;;;;;;;;15.60;76.40;;;;;;5070168;28;19916;-78
2023/07/29 05:50:31;;;;;;;;;;;15.60;76.40;;;;;;5070344;28;20276;-78
2023/07/29 05:52:57;;;;;;;;;;;15.60;76.30;;;;;;5069950;28;19919;-78
2023/07/29 05:55:22;;;;;;;;;;;15.60;76.30;;;;;;5069913;28;19919;-78
2023/07/29 05:57:48;;;;;;;;;;;15.50;76.30;;;;;;5069688;28;19912;-78
2023/07/29 06:00:13;;;;;;;;;;;15.50;76.30;;;;;;5068172;28;19916;-77
2023/07/29 06:02:40;;;;;;;;;;;15.50;76.30;;;;;;5068291;28;19921;-78
2023/07/29 06:05:07;;;;;;;;;;;15.50;76.40;;;;;;5069642;28;19916;-78
2023/07/29 06:07:33;;;;;;;;;;;15.40;76.30;;;;;;5068308;28;19934;-78
2023/07/29 06:09:59;;;;;;;;;;;15.40;76.30;;;;;;5068379;28;19959;-78
2023/07/29 06:12:25;;;;;;;;;;;15.50;76.40;;;;;;5051947;28;20277;-78
2023/07/29 06:14:50;;;;;;;;;;;15.50;76.40;;;;;;5068021;28;20315;-78
2023/07/29 06:17:16;;;;;;;;;;;15.80;76.80;;;;;;5068418;28;20250;-78
2023/07/29 06:19:41;;;;;;;;;;;16.30;76.10;;;;;;5068163;28;19919;-77
2023/07/29 06:22:07;;;;;;;;;;;16.70;75.60;;;;;;5069375;28;19917;-77
2023/07/29 06:24:33;;;;;;;;;;;17.10;74.90;;;;;;5068056;28;20015;-78
2023/07/29 06:26:58;;;;;;;;;;;17.00;74.50;;;;;;5069285;28;19920;-77
2023/07/29 06:29:24;;;;;;;;;;;16.90;74.90;;;;;;5069142;28;19915;-77
2023/07/29 06:31:51;;;;;;;;;;;16.90;75.30;;;;;;5069019;28;19917;-78
2023/07/29 06:34:17;;;;;;;;;;;17.00;75.40;;;;;;5069081;28;19962;-77
2023/07/29 06:36:42;;;;;;;;;;;17.30;75.70;;;;;;5069198;28;19912;-78
2023/07/29 06:39:08;;;;;;;;;;;18.20;75.90;;;;;;5069058;28;19909;-77
2023/07/29 06:41:33;;;;;;;;;;;19.40;75.00;;;;;;5068862;28;20327;-77
2023/07/29 06:43:59;;;;;;;;;;;20.30;73.80;;;;;;5067694;28;19912;-75
2023/07/29 06:46:25;;;;;;;;;;;21.10;72.80;;;;;;5084245;28;19947;-78
2023/07/29 06:48:51;;;;;;;;;;;21.20;71.80;;;;;;5067568;28;19969;-77
2023/07/29 06:51:16;;;;;;;;;;;21.10;71.50;;;;;;5069592;28;19912;-77
2023/07/29 06:53:42;;;;;;;;;;;20.40;71.60;;;;;;5069692;28;19968;-75
2023/07/29 06:56:08;;;;;;;;;;;19.70;72.50;;;;;;5068757;28;20012;-78
2023/07/29 06:58:34;;;;;;;;;;;19.10;73.50;;;;;;5068523;28;19913;-78
2023/07/29 07:00:59;;;;;;;;;;;18.70;74.20;;;;;;5068280;28;19928;-78
2023/07/29 07:03:25;;;;;;;;;;;18.30;74.70;;;;;;5067321;28;20670;-68
2023/07/29 07:05:50;;;;;;;;;;;18.10;75.20;;;;;;5068441;28;19923;-79
2023/07/29 07:08:16;;;;;;;;;;;18.10;75.60;;;;;;5068456;28;19916;-77
2023/07/29 07:10:42;;;;;;;;;;;18.00;75.70;;;;;;5068560;28;19969;-78
2023/07/29 07:13:07;;;;;;;;;;;18.00;75.90;;;;;;5067009;28;20003;-78
2023/07/29 07:15:33;;;;;;;;;;;18.10;76.10;;;;;;5068154;28;19932;-77
2023/07/29 07:17:58;;;;;;;;;;;18.30;76.50;;;;;;5068325;28;20368;-78
2023/07/29 07:20:24;;;;;;;;;;;19.20;77.50;;;;;;5068086;28;20424;-78
2023/07/29 07:22:49;;;;;;;;;;;19.80;75.60;;;;;;5068124;28;19931;-78
2023/07/29 07:25:15;;;;;;;;;;;19.70;74.90;;;;;;5049944;28;19954;-78
2023/07/29 07:27:40;;;;;;;;;;;19.60;75.50;;;;;;5067511;28;19912;-78
2023/07/29 07:30:06;;;;;;;;;;;20.10;75.60;;;;;;5067952;28;19931;-78
2023/07/29 07:32:32;;;;;;;;;;;20.30;75.30;;;;;;5066572;28;19919;-78
2023/07/29 07:34:57;;;;;;;;;;;20.30;74.90;;;;;;5066613;28;19923;-78
2023/07/29 07:37:23;;;;;;;;;;;20.00;74.80;;;;;;5067976;28;19913;-78
2023/07/29 07:39:48;;;;;;;;;;;19.60;74.90;;;;;;5067771;28;19924;-78
2023/07/29 07:42:14;;;;;;;;;;;19.20;75.20;;;;;;5067793;28;19969;-78
2023/07/29 07:44:39;;;;;;;;;;;18.80;75.50;;;;;;5067760;28;19995;-78
2023/07/29 07:47:05;;;;;;;;;;;18.50;75.70;;;;;;5067727;28;20313;-78
2023/07/29 07:49:31;;;;;;;;;;;18.30;76.10;;;;;;5067632;28;20368;-78
2023/07/29 07:51:56;;;;;;;;;;;18.30;76.50;;;;;;5067402;28;19940;-78
2023/07/29 07:54:22;;;;;;;;;;;18.70;77.10;;;;;;5066183;28;19912;-79
2023/07/29 07:56:47;;;;;;;;;;;19.50;77.30;;;;;;5067320;28;19995;-79
2023/07/29 07:59:13;;;;;;;;;;;20.50;76.80;;;;;;5066045;28;19917;-79
2023/07/29 08:01:39;;;;;;;;;;;21.50;76.40;;;;;;5067093;28;19925;-76
2023/07/29 08:04:05;;;;;;;;;;;22.70;76.10;;;;;;5067303;28;20364;-74
2023/07/29 08:06:31;;;;;;;;;;;23.80;75.30;;;;;;5065879;28;19917;-76
2023/07/29 08:08:57;;;;;;;;;;;24.90;74.70;;;;;;5067209;28;20345;-77
2023/07/29 08:11:22;;;;;;;;;;;25.50;74.00;;;;;;5066764;28;19919;-78
2023/07/29 08:13:48;;;;;;;;;;;25.40;73.00;;;;;;5067338;28;19916;-78
2023/07/29 08:16:14;;;;;;;;;;;25.10;73.50;;;;;;5067343;28;19958;-78
2023/07/29 08:18:39;;;;;;;;;;;25.00;73.60;;;;;;5067814;28;20289;-78
2023/07/29 08:21:05;;;;;;;;;;;25.00;74.20;;;;;;5067305;28;19938;-79
2023/07/29 08:23:31;;;;;;;;;;;25.40;74.80;;;;;;5066337;28;19917;-79
2023/07/29 08:26:01;;;;;;;;;;;25.90;74.80;;;;;;5071227;28;19909;-77
2023/07/29 08:28:33;;;;;;;;;;;26.40;74.40;;;;;;5077451;28;19993;-79
2023/07/29 08:30:59;;;;;;;;;;;26.10;73.70;;;;;;5089075;28;19908;-77
2023/07/29 08:33:25;;;;;;;;;;;25.40;73.40;;;;;;5087689;28;19913;-76
2023/07/29 08:35:51;;;;;;;;;;;24.60;73.60;;;;;;5088535;28;20371;-75
2023/07/29 08:38:16;;;;;;;;;;;23.70;74.00;;;;;;5091274;28;20002;-77
2023/07/29 08:40:45;;;;;;;;;;;23.00;74.80;;;;;;5088811;28;19912;-76
2023/07/29 08:43:11;;;;;;;;;;;22.50;75.20;;;;;;5088390;28;19913;-78
2023/07/29 08:45:38;;;;;;;;;;;22.30;75.90;;;;;;5092361;28;19916;-72
2023/07/29 08:48:07;;;;;;;;;;;22.60;77.30;;;;;;5092231;28;19919;-77
2023/07/29 08:50:33;;;;;;;;;;;23.70;78.00;;;;;;5087078;28;20086;-77
2023/07/29 08:53:00;;;;;;;;;;;25.00;77.50;;;;;;5083983;28;20375;-77
2023/07/29 08:55:26;;;;;;;;;;;25.50;75.80;;;;;;5089873;28;19908;-77
2023/07/29 08:57:51;;;;;;;;;;;25.50;75.30;;;;;;5092371;28;19919;-78
2023/07/29 09:00:17;;;;;;;;;;;25.30;75.00;;;;;;5090601;28;19912;-77
2023/07/29 09:02:43;;;;;;;;;;;25.00;74.70;;;;;;5091240;28;19962;-76
2023/07/29 09:05:08;;;;;;;;;;;24.40;74.60;;;;;;5092405;28;19961;-78
2023/07/29 09:07:35;;;;;;;;;;;23.80;75.00;;;;;;5090973;28;19923;-77
2023/07/29 09:10:01;;;;;;;;;;;23.80;76.00;;;;;;5090120;28;20735;-77
2023/07/29 09:12:27;;;;;;;;;;;23.50;75.40;;;;;;5091953;28;19915;-78
2023/07/29 09:14:54;;;;;;;;;;;23.10;75.30;;;;;;5089109;28;20046;-77
2023/07/29 09:17:20;;;;;;;;;;;22.60;75.60;;;;;;5084043;28;19923;-78
2023/07/29 09:19:50;;;;;;;;;;;22.10;75.80;;;;;;5088280;28;19921;-77
2023/07/29 09:22:22;;;;;;;;;;;21.80;76.30;;;;;;5090875;28;20018;-76
2023/07/29 09:24:48;;;;;;;;;;;21.60;76.40;;;;;;5091311;28;19964;-76
2023/07/29 09:27:27;;;;;;;;;;;21.30;76.30;;;;;;5091692;28;19952;-77
2023/07/29 09:29:53;;;;;;;;;;;21.00;76.40;;;;;;5091822;28;19923;-76
2023/07/29 09:32:20;;;;;;;;;;;20.80;76.60;;;;;;5090104;28;19999;-76
2023/07/29 09:34:46;;;;;;;;;;;20.60;76.70;;;;;;5090169;28;20415;-76
2023/07/29 09:37:20;;;;;;;;;;;20.50;76.70;;;;;;5091054;28;19912;-76
2023/07/29 09:39:46;;;;;;;;;;;20.30;76.70;;;;;;5089422;28;19912;-76
2023/07/29 09:42:17;;;;;;;;;;;20.20;76.80;;;;;;5089774;28;19912;-76
2023/07/29 09:44:42;;;;;;;;;;;20.10;76.90;;;;;;5091207;28;19908;-76
2023/07/29 09:47:08;;;;;;;;;;;20.10;77.00;;;;;;5089704;28;19981;-77
2023/07/29 09:49:36;;;;;;;;;;;20.20;77.20;;;;;;5088886;28;19912;-75
2023/07/29 09:52:03;;;;;;;;;;;20.30;77.00;;;;;;5090856;28;19959;-76
2023/07/29 09:54:30;;;;;;;;;;;20.30;76.60;;;;;;5090276;28;19916;-77
2023/07/29 09:56:56;;;;;;;;;;;20.40;76.90;;;;;;5091495;28;19962;-76
2023/07/29 09:59:23;;;;;;;;;;;20.60;76.70;;;;;;5093295;28;20257;-78
2023/07/29 10:01:49;;;;;;;;;;;20.70;76.90;;;;;;5091085;28;20004;-76
2023/07/29 10:04:14;;;;;;;;;;;21.70;78.70;;;;;;5091116;28;19912;-75
2023/07/29 10:06:42;;;;;;;;;;;23.20;78.90;;;;;;5091784;28;19915;-75
2023/07/29 10:09:08;;;;;;;;;;;24.60;78.30;;;;;;5091719;28;19931;-75
2023/07/29 10:11:34;;;;;;;;;;;25.90;78.00;;;;;;5091443;28;19912;-76
2023/07/29 10:14:00;;;;;;;;;;;26.90;77.20;;;;;;5089780;28;19931;-74
2023/07/29 10:16:25;;;;;;;;;;;26.90;75.70;;;;;;5089996;28;19932;-75
2023/07/29 10:18:52;;;;;;;;;;;26.50;75.40;;;;;;5089026;28;20260;-76
2023/07/29 10:21:17;;;;;;;;;;;26.10;75.20;;;;;;5090013;28;20111;-75
2023/07/29 10:23:46;;;;;;;;;;;25.50;74.90;;;;;;5088660;28;20002;-76
2023/07/29 10:26:14;;;;;;;;;;;24.80;75.00;;;;;;5089500;28;20041;-75
2023/07/29 10:28:40;;;;;;;;;;;24.10;75.40;;;;;;5089942;28;20253;-77
2023/07/29 10:31:06;;;;;;;;;;;23.70;75.90;;;;;;5089912;28;19916;-76
2023/07/29 10:33:33;;;;;;;;;;;23.20;75.90;;;;;;5089079;28;19920;-76
2023/07/29 10:35:59;;;;;;;;;;;22.80;76.10;;;;;;5090413;28;20336;-77
2023/07/29 10:38:25;;;;;;;;;;;22.70;77.00;;;;;;5089783;28;19919;-76
2023/07/29 10:40:52;;;;;;;;;;;22.80;77.20;;;;;;5090771;28;19996;-77
2023/07/29 10:43:19;;;;;;;;;;;22.90;76.90;;;;;;5090348;28;19931;-77
2023/07/29 10:45:44;;;;;;;;;;;22.90;76.90;;;;;;5089762;28;19908;-75
2023/07/29 10:48:33;;;;;;;;;;;23.10;76.90;;;;;;5089705;28;20311;-76
2023/07/29 10:51:17;;;;;;;;;;;23.50;77.50;;;;;;5089101;28;19908;-74
2023/07/29 10:53:43;;;;;;;;;;;23.90;76.60;;;;;;5088716;28;19908;-76
2023/07/29 10:56:09;;;;;;;;;;;23.80;76.00;;;;;;5087211;28;20351;-74
2023/07/29 10:58:34;;;;;;;;;;;23.50;76.10;;;;;;5072624;28;19908;-75
2023/07/29 11:01:00;;;;;;;;;;;23.40;76.30;;;;;;5069673;28;19924;-76
2023/07/29 11:03:28;;;;;;;;;;;23.80;77.90;;;;;;5090097;28;19982;-77
2023/07/29 11:05:54;;;;;;;;;;;24.80;78.70;;;;;;5070199;28;19932;-79
2023/07/29 11:08:20;;;;;;;;;;;26.00;78.70;;;;;;5091292;28;19919;-79
2023/07/29 11:11:08;;;;;;;;;;;27.00;78.30;;;;;;5088463;28;19912;-79
2023/07/29 11:13:36;;;;;;;;;;;27.80;78.10;;;;;;5079732;28;19930;-78
2023/07/29 11:16:02;;;;;;;;;;;28.70;78.10;;;;;;5089267;28;19913;-64
2023/07/29 11:18:29;;;;;;;;;;;29.10;77.40;;;;;;5088625;28;19953;-75
2023/07/29 11:20:56;;;;;;;;;;;29.20;77.20;;;;;;5088643;28;20022;-75
2023/07/29 11:23:32;;;;;;;;;;;29.30;77.50;;;;;;5089272;28;19909;-78
2023/07/29 11:25:58;;;;;;;;;;;29.50;77.50;;;;;;5088700;28;20515;-75
2023/07/29 11:28:24;;;;;;;;;;;29.70;77.70;;;;;;5088722;28;20007;-76
2023/07/29 11:30:50;;;;;;;;;;;29.80;77.90;;;;;;5089555;28;19912;-78
2023/07/29 11:33:17;;;;;;;;;;;30.00;78.00;;;;;;5092036;28;20279;-78
2023/07/29 11:35:43;;;;;;;;;;;30.10;77.70;;;;;;5090415;28;19909;-78
2023/07/29 11:38:14;;;;;;;;;;;29.90;77.30;;;;;;5089418;28;20368;-79
2023/07/29 11:40:40;;;;;;;;;;;29.70;77.80;;;;;;5089727;28;19927;-75
2023/07/29 11:43:05;;;;;;;;;;;29.70;77.80;;;;;;5088797;28;20338;-76
2023/07/29 11:45:31;;;;;;;;;;;29.70;78.60;;;;;;5086820;28;20027;-75
2023/07/29 11:47:56;;;;;;;;;;;29.40;76.90;;;;;;5088403;28;19958;-76
2023/07/29 11:50:22;;;;;;;;;;;29.10;78.00;;;;;;5087139;28;19966;-74
2023/07/29 11:52:48;;;;;;;;;;;29.30;78.50;;;;;;5088145;28;19919;-77
2023/07/29 11:55:14;;;;;;;;;;;29.40;78.10;;;;;;5088418;28;19955;-76
2023/07/29 11:57:41;;;;;;;;;;;29.40;78.20;;;;;;5089908;28;20380;-75
2023/07/29 12:00:09;;;;;;;;;;;29.50;78.70;;;;;;5088000;28;19916;-76
2023/07/29 12:02:38;;;;;;;;;;;29.90;79.00;;;;;;5087571;28;20382;-73
2023/07/29 12:05:05;;;;;;;;;;;30.40;79.20;;;;;;5080617;28;19991;-74
2023/07/29 12:07:31;;;;;;;;;;;30.80;79.00;;;;;;5073441;28;19923;-76
2023/07/29 12:09:56;;;;;;;;;;;30.70;78.10;;;;;;5076374;28;20364;-73
2023/07/29 12:12:22;;;;;;;;;;;30.10;77.80;;;;;;5088239;28;19961;-73
2023/07/29 12:14:48;;;;;;;;;;;30.30;78.30;;;;;;5082756;28;19919;-76
2023/07/29 12:17:14;;;;;;;;;;;30.40;78.20;;;;;;5088416;28;20015;-76
2023/07/29 12:19:41;;;;;;;;;;;30.10;77.50;;;;;;5081098;28;20369;-76
2023/07/29 12:22:07;;;;;;;;;;;29.30;76.70;;;;;;5077548;28;19924;-77
2023/07/29 12:24:33;;;;;;;;;;;28.80;77.40;;;;;;5086963;28;19916;-76
2023/07/29 12:26:59;;;;;;;;;;;28.60;77.70;;;;;;5088873;28;19908;-76
2023/07/29 12:29:25;;;;;;;;;;;28.20;77.20;;;;;;5089299;28;19908;-75
2023/07/29 12:32:17;;;;;;;;;;;27.80;77.50;;;;;;5089422;28;19958;-75
2023/07/29 12:34:43;;;;;;;;;;;27.60;77.10;;;;;;5087785;28;19958;-71
2023/07/29 12:37:08;;;;;;;;;;;27.00;76.60;;;;;;5088262;28;19913;-74
2023/07/29 12:39:35;;;;;;;;;;;26.30;76.50;;;;;;5089227;28;20006;-75
2023/07/29 12:42:01;;;;;;;;;;;25.50;75.00;;;;;;5089354;28;20405;-75
2023/07/29 12:44:36;;;;;;;;;;;24.10;74.50;;;;;;5089693;28;20003;-75
2023/07/29 12:47:03;;;;;;;;;;;22.90;75.30;;;;;;5088210;28;19908;-76
2023/07/29 12:49:29;;;;;;;;;;;21.90;76.10;;;;;;5088527;28;19932;-76
2023/07/29 12:51:59;;;;;;;;;;;21.30;76.90;;;;;;5087443;28;19981;-76
2023/07/29 12:54:24;;;;;;;;;;;21.00;77.40;;;;;;5087977;28;19934;-74
2023/07/29 12:56:50;;;;;;;;;;;21.10;78.20;;;;;;5088134;28;19920;-70
2023/07/29 12:59:16;;;;;;;;;;;21.40;78.50;;;;;;5087949;28;19912;-76
2023/07/29 13:01:42;;;;;;;;;;;22.10;79.40;;;;;;5088315;28;20398;-77
2023/07/29 13:04:07;;;;;;;;;;;23.00;79.40;;;;;;5088252;28;19936;-77
2023/07/29 13:06:33;;;;;;;;;;;23.80;79.40;;;;;;5086552;28;20010;-76
2023/07/29 13:08:58;;;;;;;;;;;24.60;79.30;;;;;;5086764;28;19916;-77
2023/07/29 13:11:24;;;;;;;;;;;25.40;79.30;;;;;;5088944;28;19912;-77
2023/07/29 13:13:50;;;;;;;;;;;25.80;78.30;;;;;;5089498;28;19919;-77
2023/07/29 13:16:15;;;;;;;;;;;25.70;77.50;;;;;;5087950;28;19920;-77
2023/07/29 13:18:42;;;;;;;;;;;25.40;77.10;;;;;;5087653;28;19915;-77
2023/07/29 13:21:08;;;;;;;;;;;25.10;76.80;;;;;;5088074;28;19966;-76
2023/07/29 13:23:34;;;;;;;;;;;24.80;76.90;;;;;;5087670;28;19931;-76
2023/07/29 13:25:59;;;;;;;;;;;24.80;77.70;;;;;;5090676;28;19914;-75
2023/07/29 13:28:25;;;;;;;;;;;24.80;77.80;;;;;;5090391;28;20337;-75
2023/07/29 13:30:50;;;;;;;;;;;24.80;77.70;;;;;;5091473;28;19989;-76
2023/07/29 13:33:16;;;;;;;;;;;24.70;77.10;;;;;;5089950;28;19916;-76
2023/07/29 13:35:42;;;;;;;;;;;24.50;76.80;;;;;;5091030;28;19916;-76
2023/07/29 13:38:07;;;;;;;;;;;24.30;77.30;;;;;;5089911;28;19915;-76
2023/07/29 13:40:34;;;;;;;;;;;24.20;77.30;;;;;;5091036;28;19998;-76
2023/07/29 13:43:00;;;;;;;;;;;24.20;77.30;;;;;;5091021;28;19918;-75
2023/07/29 13:45:25;;;;;;;;;;;24.10;77.30;;;;;;5090530;28;19994;-76
2023/07/29 13:47:51;;;;;;;;;;;24.10;77.00;;;;;;5091017;28;19916;-75
2023/07/29 13:50:17;;;;;;;;;;;24.00;76.90;;;;;;5089667;28;19920;-76
2023/07/29 13:52:43;;;;;;;;;;;23.90;76.80;;;;;;5089796;28;20306;-76
2023/07/29 13:55:10;;;;;;;;;;;23.80;76.90;;;;;;5089626;28;19915;-76
2023/07/29 13:57:35;;;;;;;;;;;23.70;76.90;;;;;;5091216;28;19908;-77
2023/07/29 14:00:01;;;;;;;;;;;23.60;76.90;;;;;;5090635;28;19912;-74
2023/07/29 14:02:26;;;;;;;;;;;23.50;76.80;;;;;;5090703;28;19923;-75
2023/07/29 14:04:52;;;;;;;;;;;23.50;77.00;;;;;;5090799;28;19912;-75
2023/07/29 14:07:18;;;;;;;;;;;23.50;77.00;;;;;;5091546;28;20322;-76
2023/07/29 14:09:43;;;;;;;;;;;23.40;76.80;;;;;;5090081;28;20007;-76
2023/07/29 14:12:14;;;;;;;;;;;23.40;77.30;;;;;;5090515;28;19908;-76